sensor_id;sensor_type;location;lat;lon;timestamp;P1;durP1;ratioP1;P2;durP2;ratioP2
24713;SDS011;12820;51.580;5.010;2024-02-04T05:23:53;40.58;;;20.65;;
24713;SDS011;12820;51.580;5.010;2024-02-04T05:28:55;42.40;;;20.65;;
24713;SDS011;12820;51.580;5.010;2024-02-04T05:33:57;51.35;;;21.42;;
24713;SDS011;12820;51.580;5.010;2024-02-04T05:39:13;42.22;;;19.55;;
24713;SDS011;12820;51.580;5.010;2024-02-04T08:14:43;28.20;;;16.27;;
24713;SDS011;12820;51.580;5.010;2024-02-04T08:19:45;30.05;;;16.40;;
24713;SDS011;12820;51.580;5.010;2024-02-04T08:24:48;25.27;;;15.35;;
24713;SDS011;12820;51.580;5.010;2024-02-04T08:29:50;25.23;;;13.00;;
24713;SDS011;12820;51.580;5.010;2024-02-04T08:34:53;22.35;;;12.23;;
24713;SDS011;12820;51.580;5.010;2024-02-04T08:39:55;26.75;;;12.18;;
24713;SDS011;12820;51.580;5.010;2024-02-04T08:44:58;21.48;;;11.48;;
24713;SDS011;12820;51.580;5.010;2024-02-04T08:50:04;21.17;;;11.27;;
24713;SDS011;12820;51.580;5.010;2024-02-04T08:55:07;18.08;;;10.23;;
24713;SDS011;12820;51.580;5.010;2024-02-04T09:00:13;19.17;;;9.88;;
24713;SDS011;12820;51.580;5.010;2024-02-04T09:05:18;14.73;;;9.50;;
24713;SDS011;12820;51.580;5.010;2024-02-04T09:10:23;16.20;;;9.27;;
24713;SDS011;12820;51.580;5.010;2024-02-04T09:15:50;16.48;;;8.90;;
24713;SDS011;12820;51.580;5.010;2024-02-04T09:21:09;13.27;;;8.30;;
24713;SDS011;12820;51.580;5.010;2024-02-04T09:26:12;20.00;;;9.98;;
24713;SDS011;12820;51.580;5.010;2024-02-04T09:31:20;18.02;;;10.90;;
24713;SDS011;12820;51.580;5.010;2024-02-04T09:36:23;17.98;;;12.35;;
24713;SDS011;12820;51.580;5.010;2024-02-04T09:41:26;22.50;;;14.27;;
24713;SDS011;12820;51.580;5.010;2024-02-04T09:46:29;21.50;;;15.23;;
24713;SDS011;12820;51.580;5.010;2024-02-04T09:51:34;24.73;;;16.08;;
24713;SDS011;12820;51.580;5.010;2024-02-04T09:56:39;26.08;;;14.85;;
24713;SDS011;12820;51.580;5.010;2024-02-04T10:01:42;23.58;;;14.25;;
24713;SDS011;12820;51.580;5.010;2024-02-04T10:06:47;20.17;;;14.48;;
24713;SDS011;12820;51.580;5.010;2024-02-04T10:11:53;20.25;;;13.40;;
24713;SDS011;12820;51.580;5.010;2024-02-04T10:16:59;24.40;;;14.13;;
24713;SDS011;12820;51.580;5.010;2024-02-04T10:22:05;22.75;;;14.93;;
24713;SDS011;12820;51.580;5.010;2024-02-04T10:27:12;25.90;;;14.80;;
24713;SDS011;12820;51.580;5.010;2024-02-04T10:32:33;28.40;;;16.98;;
24713;SDS011;12820;51.580;5.010;2024-02-04T10:37:42;28.13;;;17.23;;
24713;SDS011;12820;51.580;5.010;2024-02-04T10:42:47;26.50;;;14.68;;
24713;SDS011;12820;51.580;5.010;2024-02-04T10:48:00;31.30;;;15.73;;
24713;SDS011;12820;51.580;5.010;2024-02-04T10:53:06;20.85;;;14.25;;
24713;SDS011;12820;51.580;5.010;2024-02-04T10:58:31;20.13;;;12.85;;
24713;SDS011;12820;51.580;5.010;2024-02-04T11:03:54;20.45;;;12.75;;
24713;SDS011;12820;51.580;5.010;2024-02-04T11:09:09;19.25;;;11.82;;
24713;SDS011;12820;51.580;5.010;2024-02-04T11:14:30;16.17;;;11.93;;
24713;SDS011;12820;51.580;5.010;2024-02-04T11:37:22;16.60;;;10.27;;
24713;SDS011;12820;51.580;5.010;2024-02-04T11:42:42;13.23;;;9.70;;
24713;SDS011;12820;51.580;5.010;2024-02-04T11:48:00;15.30;;;9.38;;
24713;SDS011;12820;51.580;5.010;2024-02-04T11:53:54;10.10;;;6.82;;
24713;SDS011;12820;51.580;5.010;2024-02-04T11:59:03;13.20;;;8.73;;
24713;SDS011;12820;51.580;5.010;2024-02-04T12:05:09;13.83;;;7.67;;
24713;SDS011;12820;51.580;5.010;2024-02-04T12:10:34;10.10;;;6.22;;
24713;SDS011;12820;51.580;5.010;2024-02-04T12:15:40;10.90;;;5.03;;
24713;SDS011;12820;51.580;5.010;2024-02-04T12:20:49;8.82;;;4.90;;
24713;SDS011;12820;51.580;5.010;2024-02-04T12:25:53;8.60;;;4.95;;
24713;SDS011;12820;51.580;5.010;2024-02-04T12:36:36;10.73;;;4.50;;
24713;SDS011;12820;51.580;5.010;2024-02-04T12:42:44;12.48;;;6.10;;
24713;SDS011;12820;51.580;5.010;2024-02-04T12:47:56;5.93;;;4.38;;
24713;SDS011;12820;51.580;5.010;2024-02-04T12:58:20;12.55;;;5.50;;
24713;SDS011;12820;51.580;5.010;2024-02-04T13:04:00;10.43;;;4.07;;
24713;SDS011;12820;51.580;5.010;2024-02-04T13:22:09;6.47;;;4.10;;
24713;SDS011;12820;51.580;5.010;2024-02-04T13:27:46;7.68;;;3.50;;
24713;SDS011;12820;51.580;5.010;2024-02-04T13:52:28;11.70;;;6.10;;
24713;SDS011;12820;51.580;5.010;2024-02-04T13:57:31;10.05;;;4.30;;
24713;SDS011;12820;51.580;5.010;2024-02-04T14:02:40;27.15;;;10.05;;
24713;SDS011;12820;51.580;5.010;2024-02-04T14:07:54;14.93;;;6.57;;
24713;SDS011;12820;51.580;5.010;2024-02-04T14:13:01;23.40;;;8.95;;
24713;SDS011;12820;51.580;5.010;2024-02-04T14:18:09;10.73;;;5.65;;
24713;SDS011;12820;51.580;5.010;2024-02-04T14:23:17;9.98;;;4.35;;
24713;SDS011;12820;51.580;5.010;2024-02-04T14:28:21;10.43;;;4.57;;
24713;SDS011;12820;51.580;5.010;2024-02-04T14:33:24;10.88;;;4.57;;
24713;SDS011;12820;51.580;5.010;2024-02-04T14:38:27;11.43;;;4.72;;
24713;SDS011;12820;51.580;5.010;2024-02-04T14:43:29;9.55;;;5.13;;
24713;SDS011;12820;51.580;5.010;2024-02-04T14:48:32;10.75;;;5.18;;
24713;SDS011;12820;51.580;5.010;2024-02-04T14:53:36;13.32;;;6.40;;
24713;SDS011;12820;51.580;5.010;2024-02-04T14:58:38;13.02;;;6.65;;
24713;SDS011;12820;51.580;5.010;2024-02-04T15:03:41;17.80;;;10.65;;
24713;SDS011;12820;51.580;5.010;2024-02-04T15:08:43;9.60;;;5.88;;
24713;SDS011;12820;51.580;5.010;2024-02-04T15:13:49;13.73;;;6.40;;
24713;SDS011;12820;51.580;5.010;2024-02-04T15:18:52;14.50;;;6.65;;
24713;SDS011;12820;51.580;5.010;2024-02-04T15:23:58;15.48;;;7.10;;
24713;SDS011;12820;51.580;5.010;2024-02-04T15:29:06;14.18;;;7.28;;
24713;SDS011;12820;51.580;5.010;2024-02-04T15:56:23;12.95;;;6.70;;
24713;SDS011;12820;51.580;5.010;2024-02-04T16:01:27;17.30;;;7.25;;
24713;SDS011;12820;51.580;5.010;2024-02-04T16:06:31;17.02;;;8.20;;
24713;SDS011;12820;51.580;5.010;2024-02-04T16:11:45;21.73;;;7.70;;
24713;SDS011;12820;51.580;5.010;2024-02-04T16:16:58;17.55;;;8.23;;
24713;SDS011;12820;51.580;5.010;2024-02-04T16:22:06;16.88;;;8.32;;
24713;SDS011;12820;51.580;5.010;2024-02-04T16:27:09;18.05;;;8.40;;
24713;SDS011;12820;51.580;5.010;2024-02-04T16:54:26;21.38;;;8.50;;
24713;SDS011;12820;51.580;5.010;2024-02-04T16:59:33;17.70;;;7.20;;
24713;SDS011;12820;51.580;5.010;2024-02-04T17:04:40;19.40;;;7.18;;
24713;SDS011;12820;51.580;5.010;2024-02-04T17:09:49;18.45;;;7.03;;
24713;SDS011;12820;51.580;5.010;2024-02-04T17:14:54;20.55;;;8.32;;
24713;SDS011;12820;51.580;5.010;2024-02-04T17:20:11;24.73;;;11.10;;
24713;SDS011;12820;51.580;5.010;2024-02-04T17:25:25;23.88;;;8.07;;
24713;SDS011;12820;51.580;5.010;2024-02-04T17:30:33;20.98;;;7.95;;
24713;SDS011;12820;51.580;5.010;2024-02-04T17:35:39;20.10;;;7.85;;
24713;SDS011;12820;51.580;5.010;2024-02-04T17:40:46;19.05;;;7.85;;
24713;SDS011;12820;51.580;5.010;2024-02-04T17:45:50;16.08;;;8.00;;
24713;SDS011;12820;51.580;5.010;2024-02-04T17:50:57;16.80;;;8.00;;
24713;SDS011;12820;51.580;5.010;2024-02-04T17:56:17;17.48;;;8.02;;
24713;SDS011;12820;51.580;5.010;2024-02-04T18:01:21;18.17;;;7.75;;
24713;SDS011;12820;51.580;5.010;2024-02-04T18:06:28;14.05;;;8.85;;
24713;SDS011;12820;51.580;5.010;2024-02-04T18:11:33;22.95;;;10.30;;
24713;SDS011;12820;51.580;5.010;2024-02-04T18:16:40;21.33;;;10.20;;
24713;SDS011;12820;51.580;5.010;2024-02-04T18:21:47;22.85;;;11.43;;
24713;SDS011;12820;51.580;5.010;2024-02-04T18:26:53;20.75;;;9.70;;
24713;SDS011;12820;51.580;5.010;2024-02-04T18:32:01;17.67;;;10.05;;
24713;SDS011;12820;51.580;5.010;2024-02-04T18:37:09;21.88;;;10.95;;
24713;SDS011;12820;51.580;5.010;2024-02-04T20:58:22;28.40;;;10.65;;
24713;SDS011;12820;51.580;5.010;2024-02-04T21:09:00;25.95;;;10.23;;
24713;SDS011;12820;51.580;5.010;2024-02-04T21:20:21;34.53;;;9.82;;
24713;SDS011;12820;51.580;5.010;2024-02-04T21:25:23;30.38;;;9.77;;
24713;SDS011;12820;51.580;5.010;2024-02-04T21:30:26;31.33;;;10.13;;
24713;SDS011;12820;51.580;5.010;2024-02-04T21:35:52;27.55;;;8.98;;
24713;SDS011;12820;51.580;5.010;2024-02-04T21:54:16;30.88;;;8.80;;
24713;SDS011;12820;51.580;5.010;2024-02-04T21:59:18;28.15;;;8.50;;
24713;SDS011;12820;51.580;5.010;2024-02-04T22:45:00;22.48;;;7.10;;
24713;SDS011;12820;51.580;5.010;2024-02-04T23:03:09;27.15;;;6.97;;
24713;SDS011;12820;51.580;5.010;2024-02-04T23:08:12;32.13;;;6.38;;
24713;SDS011;12820;51.580;5.010;2024-02-04T23:13:14;23.13;;;6.93;;
24713;SDS011;12820;51.580;5.010;2024-02-04T23:18:17;23.33;;;6.38;;
24713;SDS011;12820;51.580;5.010;2024-02-04T23:23:19;22.73;;;6.95;;
24713;SDS011;12820;51.580;5.010;2024-02-04T23:28:25;31.58;;;6.20;;
24713;SDS011;12820;51.580;5.010;2024-02-04T23:47:23;24.58;;;6.57;;
24713;SDS011;12820;51.580;5.010;2024-02-04T23:52:27;21.70;;;6.63;;
24713;SDS011;12820;51.580;5.010;2024-02-04T23:57:31;25.90;;;7.13;;
